createdAt,value
2022-10-15T00:00:18.353Z,25.03
2022-10-15T00:02:45.994Z,24.17
2022-10-15T00:05:13.645Z,24.83
2022-10-15T00:07:42.674Z,23.15
2022-10-15T00:10:10.679Z,24.08
2022-10-15T00:12:38.433Z,23.02
2022-10-15T00:15:07.042Z,22.42
2022-10-15T00:17:35.291Z,22.37
2022-10-15T00:20:03.442Z,21.85
2022-10-15T00:22:31.090Z,22.70
2022-10-15T00:25:00.223Z,20.90
2022-10-15T00:27:28.409Z,21.35
2022-10-15T00:29:56.030Z,19.40
2022-10-15T00:32:23.912Z,20.45
2022-10-15T00:34:51.823Z,19.95
2022-10-15T00:37:20.981Z,18.85
2022-10-15T00:39:48.733Z,18.92
2022-10-15T00:42:18.353Z,19.65
2022-10-15T00:44:52.568Z,20.35
2022-10-15T00:47:26.134Z,19.20
2022-10-15T00:49:59.655Z,20.38
2022-10-15T00:52:33.022Z,20.23
2022-10-15T00:55:03.480Z,19.58
2022-10-15T00:57:34.569Z,20.58
2022-10-15T01:00:06.314Z,20.25
2022-10-15T01:02:34.087Z,20.15
2022-10-15T01:05:01.846Z,20.70
2022-10-15T01:07:29.509Z,21.00
2022-10-15T01:09:57.113Z,18.98
2022-10-15T01:12:33.508Z,17.85
2022-10-15T01:15:08.048Z,15.90
2022-10-15T01:17:40.200Z,17.52
2022-10-15T01:20:28.014Z,16.40
2022-10-15T01:23:08.696Z,16.90
2022-10-15T01:25:45.759Z,16.88
2022-10-15T01:28:21.972Z,16.98
2022-10-15T01:30:55.376Z,18.15
2022-10-15T01:33:26.995Z,17.45
2022-10-15T01:35:56.254Z,16.70
2022-10-15T01:38:30.808Z,16.40
2022-10-15T01:41:00.676Z,16.20
2022-10-15T01:43:32.060Z,17.50
2022-10-15T01:46:05.299Z,17.42
2022-10-15T01:48:34.917Z,16.58
2022-10-15T01:51:06.358Z,19.02
2022-10-15T01:53:34.881Z,18.80
2022-10-15T01:56:05.647Z,17.90
2022-10-15T01:58:33.417Z,17.05
2022-10-15T02:01:02.572Z,18.80
2022-10-15T02:03:30.252Z,21.10
2022-10-15T02:06:02.235Z,16.27
2022-10-15T02:08:34.005Z,19.08
2022-10-15T02:11:05.675Z,23.50
2022-10-15T02:13:40.278Z,18.80
2022-10-15T02:16:14.066Z,17.80
2022-10-15T02:18:44.968Z,17.95
2022-10-15T02:21:15.970Z,17.10
2022-10-15T02:23:48.833Z,17.33
2022-10-15T02:26:17.331Z,18.42
2022-10-15T02:28:49.395Z,17.23
2022-10-15T02:31:20.076Z,16.43
2022-10-15T02:33:48.424Z,16.10
2022-10-15T02:36:16.504Z,16.10
2022-10-15T02:38:45.849Z,16.25
2022-10-15T02:41:14.133Z,16.17
2022-10-15T02:43:42.154Z,16.60
2022-10-15T02:46:11.562Z,16.30
2022-10-15T02:48:40.588Z,16.90
2022-10-15T02:51:08.212Z,16.70
2022-10-15T02:53:36.048Z,16.00
2022-10-15T02:56:03.733Z,16.13
2022-10-15T02:58:31.870Z,16.27
2022-10-15T03:00:59.547Z,16.45
2022-10-15T03:03:27.305Z,15.85
2022-10-15T03:05:56.526Z,16.35
2022-10-15T03:08:24.188Z,15.65
2022-10-15T03:10:51.818Z,16.38
2022-10-15T03:13:19.474Z,17.25
2022-10-15T03:15:47.100Z,17.50
2022-10-15T03:18:14.731Z,16.25
2022-10-15T03:20:42.426Z,15.95
2022-10-15T03:23:11.423Z,17.10
2022-10-15T03:25:39.085Z,16.30
2022-10-15T03:28:06.706Z,16.95
2022-10-15T03:30:34.413Z,16.63
2022-10-15T03:33:02.268Z,16.73
2022-10-15T03:35:29.917Z,15.93
2022-10-15T03:37:57.553Z,17.25
2022-10-15T03:40:26.760Z,17.47
2022-10-15T03:42:55.181Z,18.43
2022-10-15T03:45:23.037Z,17.30
2022-10-15T03:47:50.716Z,18.93
2022-10-15T03:50:18.560Z,18.95
2022-10-15T03:52:46.310Z,19.40
2022-10-15T03:55:14.001Z,18.92
2022-10-15T03:57:43.077Z,19.35
2022-10-15T04:00:13.204Z,19.20
2022-10-15T04:02:40.857Z,19.27
2022-10-15T04:05:08.558Z,19.65
2022-10-15T04:07:36.977Z,20.10
2022-10-15T04:10:05.165Z,20.92
2022-10-15T04:12:32.783Z,22.13
2022-10-15T04:15:01.865Z,20.52
2022-10-15T04:17:29.535Z,20.10
2022-10-15T04:19:57.135Z,20.42
2022-10-15T04:22:25.178Z,20.90
2022-10-15T04:24:53.080Z,20.52
2022-10-15T04:27:20.720Z,20.70
2022-10-15T04:29:48.886Z,21.60
2022-10-15T04:32:18.507Z,21.15
2022-10-15T04:34:46.747Z,21.10
2022-10-15T04:37:14.855Z,21.30
2022-10-15T04:39:42.859Z,20.10
2022-10-15T04:42:10.531Z,20.92
2022-10-15T04:44:38.094Z,21.45
2022-10-15T04:47:05.737Z,21.05
2022-10-15T04:49:34.761Z,21.85
2022-10-15T04:52:02.403Z,21.70
2022-10-15T04:54:30.011Z,22.45
2022-10-15T04:56:57.653Z,20.80
2022-10-15T04:59:25.304Z,20.95
2022-10-15T05:01:52.921Z,21.42
2022-10-15T05:04:20.582Z,23.25
2022-10-15T05:06:49.708Z,22.80
2022-10-15T05:09:17.400Z,24.80
2022-10-15T05:11:45.008Z,23.33
2022-10-15T05:14:13.216Z,24.58
2022-10-15T05:16:40.926Z,23.70
2022-10-15T05:19:09.522Z,23.65
2022-10-15T05:21:37.524Z,23.73
2022-10-15T05:24:07.176Z,21.75
2022-10-15T05:26:34.782Z,23.55
2022-10-15T05:29:02.629Z,23.73
2022-10-15T05:31:31.917Z,22.97
2022-10-15T05:34:00.213Z,23.87
2022-10-15T05:36:29.262Z,23.60
2022-10-15T05:38:58.195Z,24.63
2022-10-15T05:41:27.838Z,24.17
2022-10-15T05:43:57.032Z,23.50
2022-10-15T05:46:24.764Z,24.63
2022-10-15T05:48:53.415Z,24.45
2022-10-15T05:51:21.640Z,24.58
2022-10-15T05:53:49.319Z,24.13
2022-10-15T05:56:17.370Z,25.13
2022-10-15T05:58:46.386Z,22.60
2022-10-15T06:01:14.525Z,25.20
2022-10-15T06:03:42.815Z,25.45
2022-10-15T06:06:18.692Z,25.02
2022-10-15T06:08:46.582Z,26.13
2022-10-15T06:11:14.716Z,25.52
2022-10-15T06:13:43.922Z,24.30
2022-10-15T06:16:15.556Z,25.02
2022-10-15T06:18:45.786Z,24.67
2022-10-15T06:21:14.005Z,25.40
2022-10-15T06:23:41.783Z,25.83
2022-10-15T06:26:10.864Z,24.63
2022-10-15T06:28:39.301Z,25.13
2022-10-15T06:31:07.546Z,25.47
2022-10-15T06:33:37.097Z,26.83
2022-10-15T06:36:06.102Z,26.30
2022-10-15T06:38:33.830Z,25.98
2022-10-15T06:41:01.651Z,27.67
2022-10-15T06:43:31.131Z,26.70
2022-10-15T06:46:01.214Z,28.20
2022-10-15T06:48:29.014Z,27.25
2022-10-15T06:50:59.077Z,26.17
2022-10-15T06:53:26.736Z,31.53
2022-10-15T06:55:57.545Z,31.08
2022-10-15T06:58:25.180Z,32.08
2022-10-15T07:00:52.916Z,28.40
2022-10-15T07:03:20.542Z,31.92
2022-10-15T07:05:48.186Z,33.92
2022-10-15T07:08:19.322Z,33.43
2022-10-15T07:10:47.948Z,36.17
2022-10-15T07:13:16.169Z,36.25
2022-10-15T07:15:44.680Z,38.38
2022-10-15T07:18:12.271Z,37.50
2022-10-15T07:20:39.932Z,39.25
2022-10-15T07:23:07.613Z,45.63
2022-10-15T07:25:36.793Z,39.67
2022-10-15T07:28:04.753Z,48.40
2022-10-15T07:30:32.414Z,45.03
2022-10-15T07:33:00.496Z,44.90
2022-10-15T07:35:28.710Z,45.28
2022-10-15T07:37:56.432Z,45.85
2022-10-15T07:40:24.183Z,44.88
2022-10-15T07:42:56.973Z,44.65
2022-10-15T07:45:24.903Z,46.20
2022-10-15T07:47:52.665Z,43.15
2022-10-15T07:50:21.004Z,44.47
2022-10-15T07:52:49.072Z,46.17
2022-10-15T07:55:17.044Z,42.90
2022-10-15T07:57:44.795Z,43.87
2022-10-15T08:00:14.722Z,42.53
2022-10-15T08:02:42.354Z,44.22
2022-10-15T08:05:10.512Z,48.63
2022-10-15T08:07:38.491Z,41.38
2022-10-15T08:10:07.045Z,42.08
2022-10-15T08:12:34.953Z,38.40
2022-10-15T08:15:02.732Z,36.60
2022-10-15T08:17:32.295Z,35.72
2022-10-15T08:19:59.995Z,34.90
2022-10-15T08:22:27.618Z,36.97
2022-10-15T08:24:55.178Z,33.10
2022-10-15T08:27:22.846Z,34.88
2022-10-15T08:29:50.532Z,38.33
2022-10-15T08:32:18.179Z,36.90
2022-10-15T08:34:47.241Z,33.97
2022-10-15T08:39:47.681Z,30.13
2022-10-15T08:42:19.661Z,31.45
2022-10-15T08:44:49.724Z,30.15
2022-10-15T08:47:28.125Z,28.10
2022-10-15T08:49:58.904Z,28.67
2022-10-15T08:52:28.831Z,27.98
2022-10-15T08:54:56.970Z,27.77
2022-10-15T08:57:37.003Z,28.25
2022-10-15T09:00:13.051Z,29.30
2022-10-15T09:02:44.636Z,29.60
2022-10-15T09:07:00.767Z,31.03
2022-10-15T09:09:33.845Z,33.65
2022-10-15T09:12:09.010Z,35.15
2022-10-15T09:14:40.300Z,31.45
2022-10-15T09:17:16.650Z,36.22
2022-10-15T09:19:45.718Z,31.77
2022-10-15T09:22:16.489Z,32.15
2022-10-15T09:24:44.104Z,36.55
2022-10-15T09:27:18.900Z,33.28
2022-10-15T09:29:52.308Z,32.67
2022-10-15T09:32:22.920Z,34.20
2022-10-15T09:34:56.609Z,34.80
2022-10-15T09:37:28.238Z,35.00
2022-10-15T09:40:11.187Z,36.30
2022-10-15T09:42:40.584Z,44.38
2022-10-15T09:45:12.036Z,33.17
2022-10-15T09:47:41.836Z,33.10
2022-10-15T09:50:12.037Z,31.88
2022-10-15T09:52:49.137Z,36.80
2022-10-15T09:55:30.875Z,35.28
2022-10-15T09:58:01.818Z,34.97
2022-10-15T10:00:54.070Z,28.60
2022-10-15T10:03:23.705Z,33.80
2022-10-15T10:05:51.671Z,30.30
2022-10-15T10:08:22.930Z,30.85
2022-10-15T10:10:55.610Z,27.38
2022-10-15T10:13:25.306Z,26.90
2022-10-15T10:15:57.608Z,28.52
2022-10-15T10:18:27.547Z,27.35
2022-10-15T10:20:58.836Z,26.15
2022-10-15T10:23:34.603Z,24.58
2022-10-15T10:26:03.415Z,25.70
2022-10-15T10:28:34.054Z,25.10
2022-10-15T10:31:05.048Z,23.40
2022-10-15T10:33:35.415Z,23.15
2022-10-15T10:36:03.520Z,22.85
2022-10-15T10:38:33.771Z,21.95
2022-10-15T10:41:06.881Z,21.70
2022-10-15T10:43:39.153Z,22.95
2022-10-15T10:46:12.728Z,21.75
2022-10-15T10:48:42.591Z,21.02
2022-10-15T10:51:18.232Z,22.42
2022-10-15T10:53:54.250Z,21.98
2022-10-15T10:56:25.275Z,22.55
2022-10-15T10:58:57.158Z,19.23
2022-10-15T11:01:24.872Z,18.60
2022-10-15T11:03:52.632Z,19.15
2022-10-15T11:06:46.534Z,20.57
2022-10-15T11:09:37.417Z,20.42
2022-10-15T11:12:15.492Z,19.52
2022-10-15T11:14:49.100Z,17.17
2022-10-15T11:17:24.502Z,17.58
2022-10-15T11:22:52.237Z,17.33
2022-10-15T11:25:27.290Z,17.65
2022-10-15T11:28:07.167Z,16.80
2022-10-15T11:30:45.805Z,18.00
2022-10-15T11:33:25.579Z,17.90
2022-10-15T11:35:59.187Z,18.73
2022-10-15T11:38:31.299Z,18.55
2022-10-15T11:41:28.526Z,18.80
2022-10-15T11:44:09.267Z,19.42
2022-10-15T11:46:44.231Z,19.05
2022-10-15T11:49:24.847Z,21.10
2022-10-15T11:52:09.639Z,19.67
2022-10-15T11:54:39.184Z,20.73
2022-10-15T11:57:10.315Z,20.00
2022-10-15T11:59:42.021Z,20.05
2022-10-15T12:02:13.846Z,20.40
2022-10-15T12:04:44.129Z,17.85
2022-10-15T12:07:15.074Z,18.45
2022-10-15T12:09:45.425Z,18.60
2022-10-15T12:12:20.412Z,17.05
2022-10-15T12:14:52.014Z,17.73
2022-10-15T12:17:24.430Z,18.17
2022-10-15T12:19:55.249Z,16.38
2022-10-15T12:22:34.945Z,15.90
2022-10-15T12:25:02.987Z,16.40
2022-10-15T12:27:35.557Z,15.20
2022-10-15T12:30:20.370Z,16.50
2022-10-15T12:32:48.824Z,15.15
2022-10-15T12:35:36.771Z,16.38
2022-10-15T12:38:13.555Z,15.43
2022-10-15T12:40:41.902Z,17.52
2022-10-15T12:43:16.774Z,15.80
2022-10-15T12:45:51.459Z,15.27
2022-10-15T12:48:31.648Z,16.85
2022-10-15T12:51:38.865Z,16.23
2022-10-15T12:54:38.783Z,15.20
2022-10-15T12:57:51.193Z,15.75
2022-10-15T13:00:38.040Z,14.65
2022-10-15T13:03:32.092Z,14.90
2022-10-15T13:06:14.830Z,16.05
2022-10-15T13:08:45.627Z,15.00
2022-10-15T13:11:21.953Z,16.30
2022-10-15T13:13:51.243Z,15.68
2022-10-15T13:19:20.398Z,15.68
2022-10-15T13:21:49.892Z,15.57
2022-10-15T13:24:20.405Z,14.70
2022-10-15T13:26:48.064Z,14.40
2022-10-15T13:29:17.066Z,15.23
2022-10-15T13:31:46.104Z,17.55
2022-10-15T13:34:22.672Z,16.15
2022-10-15T13:36:50.572Z,12.00
2022-10-15T13:39:26.035Z,11.82
2022-10-15T13:41:57.118Z,12.35
2022-10-15T13:44:26.146Z,13.10
2022-10-15T13:46:53.742Z,14.93
2022-10-15T13:49:24.219Z,11.65
2022-10-15T13:51:54.783Z,10.20
2022-10-15T13:54:24.421Z,9.93
2022-10-15T13:56:55.586Z,9.75
2022-10-15T13:59:23.577Z,12.88
2022-10-15T14:01:53.940Z,22.07
2022-10-15T14:04:24.419Z,17.05
2022-10-15T14:12:02.241Z,7.10
2022-10-15T14:15:51.820Z,7.70
2022-10-15T14:18:32.944Z,8.10
2022-10-15T14:21:01.247Z,9.00
2022-10-15T14:23:29.201Z,7.47
2022-10-15T14:25:59.976Z,8.55
2022-10-15T14:28:28.648Z,8.73
2022-10-15T14:32:28.630Z,8.55
2022-10-15T14:34:58.189Z,8.40
2022-10-15T14:37:31.876Z,7.47
2022-10-15T14:40:21.512Z,7.63
2022-10-15T14:42:50.861Z,7.18
2022-10-15T14:45:24.934Z,8.18
2022-10-15T14:47:55.304Z,7.97
2022-10-15T14:50:33.031Z,11.63
2022-10-15T14:53:02.003Z,9.00
2022-10-15T14:55:33.713Z,9.80
2022-10-15T14:58:03.376Z,9.40
2022-10-15T15:00:34.179Z,10.60
2022-10-15T15:03:06.073Z,8.15
2022-10-15T15:08:12.021Z,8.45
2022-10-15T15:10:39.974Z,8.15
2022-10-15T15:14:23.860Z,9.77
2022-10-15T15:16:51.504Z,9.30
2022-10-15T15:21:46.729Z,7.03
2022-10-15T15:24:14.481Z,7.82
2022-10-15T15:26:42.049Z,8.73
2022-10-15T15:29:13.712Z,8.07
2022-10-15T15:31:42.966Z,7.32
2022-10-15T15:34:10.660Z,7.93
2022-10-15T15:36:38.253Z,8.13
2022-10-15T15:39:05.900Z,8.95
2022-10-15T15:41:33.830Z,6.85
2022-10-15T15:44:01.789Z,8.45
2022-10-15T15:46:29.446Z,8.68
2022-10-15T15:48:59.076Z,8.00
2022-10-15T15:52:56.969Z,9.98
2022-10-15T15:57:52.427Z,9.60
2022-10-15T16:00:20.504Z,8.02
2022-10-15T16:12:40.890Z,6.93
2022-10-15T16:15:13.398Z,7.80
2022-10-15T16:17:42.619Z,7.88
2022-10-15T16:20:12.153Z,7.05
2022-10-15T16:22:39.849Z,8.00
2022-10-15T16:25:08.775Z,9.90
2022-10-15T16:27:37.804Z,10.30
2022-10-15T16:30:06.313Z,10.65
2022-10-15T16:32:33.992Z,9.98
2022-10-15T16:35:01.628Z,9.57
2022-10-15T16:37:29.281Z,9.00
2022-10-15T16:39:57.058Z,9.15
2022-10-15T16:42:24.969Z,6.88
2022-10-15T16:44:53.943Z,7.38
2022-10-15T16:47:22.090Z,7.78
2022-10-15T16:49:50.026Z,8.18
2022-10-15T16:52:17.808Z,7.55
2022-10-15T16:54:45.403Z,8.05
2022-10-15T16:57:13.048Z,8.15
2022-10-15T17:02:10.332Z,7.88
2022-10-15T17:06:25.501Z,9.37
2022-10-15T17:08:54.314Z,9.77
2022-10-15T17:11:23.077Z,20.88
2022-10-15T17:13:52.111Z,22.17
2022-10-15T17:16:21.578Z,19.98
2022-10-15T17:21:02.009Z,14.10
2022-10-15T17:23:30.743Z,15.82
2022-10-15T17:25:58.344Z,12.98
2022-10-15T17:28:26.080Z,10.10
2022-10-15T17:30:53.700Z,10.10
2022-10-15T17:33:21.316Z,11.15
2022-10-15T17:35:48.874Z,12.80
2022-10-15T17:38:20.472Z,18.45
2022-10-15T17:40:50.219Z,20.27
2022-10-15T17:43:17.831Z,21.88
2022-10-15T17:45:45.376Z,22.30
2022-10-15T17:48:13.086Z,23.13
2022-10-15T17:50:45.218Z,23.02
2022-10-15T17:53:13.311Z,12.65
2022-10-15T17:55:42.338Z,13.07
2022-10-15T17:58:10.020Z,20.23
2022-10-15T18:00:37.755Z,23.05
2022-10-15T18:03:05.451Z,17.10
2022-10-15T18:05:33.198Z,14.98
2022-10-15T18:08:01.475Z,11.48
2022-10-15T18:10:29.071Z,9.10
2022-10-15T18:12:58.163Z,8.65
2022-10-15T18:15:25.806Z,8.13
2022-10-15T18:17:53.392Z,6.30
2022-10-15T18:20:21.023Z,6.78
2022-10-15T18:22:48.675Z,6.15
2022-10-15T18:25:16.426Z,6.03
2022-10-15T18:27:44.039Z,5.50
2022-10-15T18:30:13.118Z,5.70
2022-10-15T18:32:40.786Z,5.22
2022-10-15T18:35:08.814Z,4.13
2022-10-15T18:37:36.431Z,4.85
2022-10-15T18:40:04.261Z,6.30
2022-10-15T18:42:31.924Z,6.00
2022-10-15T18:44:59.583Z,5.73
2022-10-15T18:47:28.674Z,5.45
2022-10-15T18:49:56.266Z,6.00
2022-10-15T18:52:38.688Z,5.50
2022-10-15T18:55:08.488Z,4.97
2022-10-15T18:57:36.118Z,9.00
2022-10-15T19:00:05.232Z,4.97
2022-10-15T19:02:34.257Z,4.82
2022-10-15T19:05:01.830Z,5.50
2022-10-15T19:07:31.689Z,5.83
2022-10-15T19:09:59.460Z,7.00
2022-10-15T19:12:27.463Z,7.68
2022-10-15T19:14:55.416Z,6.90
2022-10-15T19:17:23.194Z,10.73
2022-10-15T19:19:52.177Z,9.40
2022-10-15T19:22:19.832Z,7.82
2022-10-15T19:24:47.519Z,6.28
2022-10-15T19:27:15.351Z,8.52
2022-10-15T19:29:42.998Z,14.90
2022-10-15T19:32:10.954Z,17.70
2022-10-15T19:34:38.591Z,10.88
2022-10-15T19:37:07.598Z,7.33
2022-10-15T19:39:35.693Z,6.47
2022-10-15T19:42:03.669Z,12.93
2022-10-15T19:44:31.275Z,6.88
2022-10-15T19:46:59.062Z,5.05
2022-10-15T19:49:26.683Z,6.68
2022-10-15T19:51:55.560Z,5.80
2022-10-15T19:56:53.120Z,6.00
2022-10-15T19:59:20.743Z,5.88
2022-10-15T20:01:48.309Z,5.30
2022-10-15T20:04:16.042Z,4.68
2022-10-15T20:06:43.661Z,4.60
2022-10-15T20:09:11.266Z,5.20
2022-10-15T20:11:40.318Z,5.25
2022-10-15T20:14:08.252Z,10.73
2022-10-15T20:16:35.882Z,15.85
2022-10-15T20:19:04.072Z,8.55
2022-10-15T20:21:31.976Z,6.40
2022-10-15T20:24:03.772Z,4.45
2022-10-15T20:26:31.367Z,4.28
2022-10-15T20:29:00.630Z,3.50
2022-10-15T20:31:32.664Z,2.40
2022-10-15T20:34:01.012Z,3.38
2022-10-15T20:36:28.712Z,2.55
2022-10-15T20:38:57.514Z,2.55
2022-10-15T20:41:25.261Z,2.90
2022-10-15T20:43:55.086Z,3.00
2022-10-15T20:46:28.135Z,2.85
2022-10-15T20:48:57.377Z,3.30
2022-10-15T20:51:28.406Z,2.65
2022-10-15T20:53:56.784Z,2.50
2022-10-15T20:56:24.608Z,2.55
2022-10-15T20:58:52.214Z,2.90
2022-10-15T21:01:20.469Z,2.80
2022-10-15T21:03:49.491Z,4.70
2022-10-15T21:06:17.162Z,5.43
2022-10-15T21:08:44.771Z,6.57
2022-10-15T21:11:12.407Z,7.90
2022-10-15T21:13:40.216Z,6.00
2022-10-15T21:16:08.569Z,4.57
2022-10-15T21:18:36.997Z,3.30
2022-10-15T21:21:08.044Z,3.45
2022-10-15T21:23:36.006Z,3.53
2022-10-15T21:26:07.218Z,3.03
2022-10-15T21:28:35.381Z,3.50
2022-10-15T21:31:05.628Z,3.30
2022-10-15T21:33:33.369Z,3.53
2022-10-15T21:36:11.912Z,3.28
2022-10-15T21:38:39.521Z,3.80
2022-10-15T21:41:07.238Z,2.90
2022-10-15T21:43:35.022Z,2.63
2022-10-15T21:46:07.147Z,2.85
2022-10-15T21:48:36.513Z,2.50
2022-10-15T21:51:04.481Z,2.20
2022-10-15T21:53:33.906Z,2.03
2022-10-15T21:56:02.172Z,2.03
2022-10-15T21:58:30.102Z,2.20
2022-10-15T22:00:57.772Z,2.28
2022-10-15T22:03:25.742Z,2.38
2022-10-15T22:05:53.382Z,2.40
2022-10-15T22:08:20.995Z,2.72
2022-10-15T22:10:50.113Z,3.00
2022-10-15T22:13:17.738Z,2.50
2022-10-15T22:15:45.339Z,2.80
2022-10-15T22:18:12.983Z,2.88
2022-10-15T22:23:09.228Z,2.97
2022-10-15T22:25:37.041Z,2.50
2022-10-15T22:28:06.396Z,2.60
2022-10-15T22:30:35.781Z,2.65
2022-10-15T22:33:03.559Z,2.72
2022-10-15T22:35:33.907Z,2.90
2022-10-15T22:38:01.531Z,2.83
2022-10-15T22:40:29.154Z,2.40
2022-10-15T22:42:57.073Z,2.30
2022-10-15T22:45:26.132Z,2.20
2022-10-15T22:47:53.742Z,2.40
2022-10-15T22:50:21.335Z,2.67
2022-10-15T22:52:48.899Z,2.13
2022-10-15T22:55:16.517Z,2.25
2022-10-15T22:57:44.121Z,2.40
2022-10-15T23:00:13.256Z,1.98
2022-10-15T23:02:42.268Z,2.35
2022-10-15T23:05:10.327Z,2.25
2022-10-15T23:07:39.825Z,2.10
2022-10-15T23:10:08.443Z,2.15
2022-10-15T23:12:37.346Z,1.92
2022-10-15T23:15:05.971Z,2.30
2022-10-15T23:17:33.906Z,2.20
2022-10-15T23:20:02.952Z,2.08
2022-10-15T23:22:30.579Z,1.98
2022-10-15T23:24:58.205Z,2.15
2022-10-15T23:27:26.066Z,2.20
2022-10-15T23:30:01.970Z,1.92
2022-10-15T23:32:41.590Z,2.17
2022-10-15T23:35:12.266Z,2.30
2022-10-15T23:37:41.367Z,2.05
2022-10-15T23:40:10.407Z,1.92
2022-10-15T23:42:38.017Z,1.70
2022-10-15T23:45:06.375Z,2.22
2022-10-15T23:47:34.046Z,2.05
2022-10-15T23:50:01.638Z,1.80
2022-10-15T23:52:32.481Z,1.90
2022-10-15T23:55:00.102Z,2.10
2022-10-15T23:57:28.114Z,1.95
2022-10-15T23:59:55.925Z,2.30
